createdAt,value
2019-06-07T00:00:38.039Z,91.30
2019-06-07T00:02:43.620Z,91.20
2019-06-07T00:05:15.352Z,91.60
2019-06-07T00:07:42.643Z,91.10
2019-06-07T00:10:15.458Z,91.00
2019-06-07T00:12:41.784Z,91.40
2019-06-07T00:15:15.409Z,90.90
2019-06-07T00:17:44.100Z,91.20
2019-06-07T00:20:17.561Z,91.20
2019-06-07T00:22:44.478Z,91.20
2019-06-07T00:25:17.356Z,90.90
2019-06-07T00:27:43.591Z,90.90
2019-06-07T00:30:37.641Z,91.00
2019-06-07T00:32:42.557Z,90.80
2019-06-07T00:35:12.124Z,90.80
2019-06-07T00:37:41.951Z,90.70
2019-06-07T00:40:20.904Z,90.80
2019-06-07T00:42:45.287Z,91.10
2019-06-07T00:45:19.030Z,90.70
2019-06-07T00:47:45.064Z,90.90
2019-06-07T00:50:15.881Z,90.80
2019-06-07T00:53:14.586Z,90.80
2019-06-07T00:55:17.430Z,91.20
2019-06-07T00:57:45.026Z,90.80
2019-06-07T01:00:15.044Z,90.60
2019-06-07T01:02:46.100Z,90.70
2019-06-07T01:05:15.948Z,90.40
2019-06-07T01:14:31.456Z,90.70
2019-06-07T01:17:33.114Z,90.50
2019-06-07T01:19:51.112Z,90.60
2019-06-07T01:22:20.715Z,90.30
2019-06-07T01:24:49.949Z,91.10
2019-06-07T01:27:20.626Z,90.80
2019-06-07T01:29:48.941Z,90.90
2019-06-07T01:32:18.802Z,91.10
2019-06-07T01:35:07.172Z,91.30
2019-06-07T01:37:35.733Z,91.00
2019-06-07T01:40:06.287Z,90.70
2019-06-07T01:42:34.951Z,90.50
2019-06-07T01:45:05.125Z,90.80
2019-06-07T01:47:33.658Z,91.30
2019-06-07T01:50:02.209Z,91.40
2019-06-07T01:52:30.747Z,90.70
2019-06-07T01:54:59.372Z,90.90
2019-06-07T01:57:43.815Z,91.00
2019-06-07T01:59:58.160Z,91.40
2019-06-07T02:02:30.026Z,91.30
2019-06-07T02:04:56.931Z,91.40
2019-06-07T02:07:29.537Z,91.30
2019-06-07T02:09:55.682Z,91.10
2019-06-07T02:12:31.709Z,91.10
2019-06-07T02:14:54.542Z,91.00
2019-06-07T02:17:26.263Z,91.40
2019-06-07T02:19:53.246Z,91.80
2019-06-07T02:22:23.626Z,91.70
2019-06-07T02:25:34.028Z,91.60
2019-06-07T02:27:24.627Z,92.10
2019-06-07T02:29:52.400Z,91.50
2019-06-07T02:32:21.709Z,92.30
2019-06-07T02:34:51.175Z,92.40
2019-06-07T02:37:19.740Z,92.10
2019-06-07T02:39:48.227Z,91.90
2019-06-07T02:42:16.806Z,92.00
2019-06-07T02:44:45.374Z,92.00
2019-06-07T02:47:13.942Z,92.40
2019-06-07T02:49:44.524Z,92.40
2019-06-07T02:52:13.345Z,92.60
2019-06-07T02:54:41.904Z,93.00
2019-06-07T02:57:10.492Z,92.80
2019-06-07T03:00:03.157Z,93.00
2019-06-07T03:02:09.262Z,92.60
2019-06-07T03:04:43.759Z,92.60
2019-06-07T03:07:11.821Z,92.60
2019-06-07T03:09:42.089Z,92.10
2019-06-07T03:12:13.242Z,92.00
2019-06-07T03:14:43.482Z,91.70
2019-06-07T03:17:35.280Z,91.80
2019-06-07T03:20:06.009Z,91.50
2019-06-07T03:22:39.843Z,91.40
2019-06-07T03:25:07.481Z,91.40
2019-06-07T03:27:44.136Z,91.30
2019-06-07T03:30:36.135Z,91.50
2019-06-07T03:32:45.779Z,91.30
2019-06-07T03:35:07.603Z,91.20
2019-06-07T03:37:40.625Z,91.30
2019-06-07T03:40:09.400Z,91.30
2019-06-07T03:42:40.202Z,91.40
2019-06-07T03:45:08.856Z,91.30
2019-06-07T03:47:41.393Z,91.60
2019-06-07T03:50:07.943Z,91.40
2019-06-07T03:52:39.091Z,91.30
2019-06-07T03:55:07.554Z,91.40
2019-06-07T03:58:23.851Z,91.20
2019-06-07T04:00:07.963Z,91.30
2019-06-07T04:02:38.623Z,91.00
2019-06-07T04:05:07.433Z,90.90
2019-06-07T04:07:36.915Z,90.80
2019-06-07T04:10:07.528Z,90.70
2019-06-07T04:12:41.206Z,90.70
2019-06-07T04:15:06.606Z,90.90
2019-06-07T04:17:37.086Z,90.80
2019-06-07T04:20:06.672Z,90.80
2019-06-07T04:22:37.656Z,90.90
2019-06-07T04:25:10.121Z,90.90
2019-06-07T04:27:40.793Z,91.00
2019-06-07T04:30:10.239Z,90.60
2019-06-07T04:32:44.051Z,90.60
2019-06-07T04:35:09.061Z,90.20
2019-06-07T04:37:41.118Z,90.20
2019-06-07T04:40:08.966Z,90.10
2019-06-07T04:42:43.884Z,89.80
2019-06-07T04:45:32.523Z,89.60
2019-06-07T04:47:42.593Z,88.80
2019-06-07T04:50:12.223Z,88.30
2019-06-07T04:52:44.881Z,88.30
2019-06-07T04:55:10.979Z,88.60
2019-06-07T04:57:42.691Z,87.60
2019-06-07T05:00:45.770Z,87.40
2019-06-07T05:02:43.000Z,87.40
2019-06-07T05:05:10.214Z,87.10
2019-06-07T05:07:42.991Z,86.50
2019-06-07T05:10:09.097Z,84.70
2019-06-07T05:12:41.541Z,86.20
2019-06-07T05:15:08.142Z,84.40
2019-06-07T05:17:37.724Z,84.90
2019-06-07T05:20:07.051Z,84.00
2019-06-07T05:22:40.797Z,83.70
2019-06-07T05:25:06.291Z,82.90
2019-06-07T05:27:36.437Z,82.30
2019-06-07T05:30:50.690Z,82.50
2019-06-07T05:32:43.970Z,81.40
2019-06-07T05:35:13.155Z,81.00
2019-06-07T05:37:45.621Z,79.00
2019-06-07T05:40:12.044Z,79.70
2019-06-07T05:42:46.386Z,79.80
2019-06-07T05:45:10.937Z,78.60
2019-06-07T05:47:44.399Z,79.00
2019-06-07T05:50:36.237Z,78.10
2019-06-07T05:52:44.474Z,78.40
2019-06-07T05:55:10.398Z,78.00
2019-06-07T05:57:45.209Z,78.30
2019-06-07T06:00:09.358Z,78.50
2019-06-07T06:02:57.648Z,76.30
2019-06-07T06:05:08.259Z,74.20
2019-06-07T06:07:42.205Z,73.90
2019-06-07T06:10:08.864Z,76.70
2019-06-07T06:12:42.706Z,75.70
2019-06-07T06:15:08.561Z,75.60
2019-06-07T06:17:40.901Z,74.40
2019-06-07T06:20:08.520Z,73.70
2019-06-07T06:22:38.095Z,72.80
2019-06-07T06:30:11.753Z,71.80
2019-06-07T06:32:46.737Z,69.40
2019-06-07T06:35:11.813Z,69.30
2019-06-07T06:37:42.590Z,70.10
2019-06-07T06:40:11.130Z,69.00
2019-06-07T06:42:39.830Z,70.70
2019-06-07T06:45:09.663Z,70.10
2019-06-07T06:47:38.339Z,69.80
2019-06-07T06:50:09.231Z,65.20
2019-06-07T06:52:39.964Z,67.80
2019-06-07T06:55:10.177Z,67.80
2019-06-07T06:57:41.457Z,68.70
2019-06-07T07:00:11.213Z,68.40
2019-06-07T07:03:26.927Z,68.10
2019-06-07T07:05:10.422Z,68.60
2019-06-07T07:07:40.271Z,67.50
2019-06-07T07:10:09.247Z,66.70
2019-06-07T07:12:37.808Z,63.40
2019-06-07T07:15:07.823Z,62.10
2019-06-07T07:17:50.590Z,61.00
2019-06-07T07:20:07.097Z,57.00
2019-06-07T07:22:35.670Z,57.90
2019-06-07T07:25:06.694Z,56.70
2019-06-07T07:27:35.264Z,56.70
2019-06-07T07:30:35.295Z,54.80
2019-06-07T07:32:37.109Z,52.30
2019-06-07T07:35:06.659Z,52.80
2019-06-07T07:37:35.228Z,50.20
2019-06-07T07:40:48.065Z,54.30
2019-06-07T07:42:36.445Z,48.10
2019-06-07T07:45:08.017Z,46.50
2019-06-07T07:47:57.657Z,47.00
2019-06-07T07:50:07.784Z,48.00
2019-06-07T07:52:36.263Z,45.90
2019-06-07T07:55:05.972Z,43.80
2019-06-07T07:57:34.561Z,44.70
2019-06-07T08:00:36.783Z,44.00
2019-06-07T08:02:33.903Z,42.80
2019-06-07T08:05:25.542Z,41.90
2019-06-07T08:07:32.685Z,41.50
2019-06-07T08:10:04.454Z,39.80
2019-06-07T08:12:55.917Z,39.80
2019-06-07T08:15:06.165Z,40.00
2019-06-07T08:17:34.696Z,41.30
2019-06-07T08:20:03.557Z,38.00
2019-06-07T08:22:32.120Z,38.10
2019-06-07T08:25:04.138Z,37.70
2019-06-07T08:27:30.810Z,37.50
2019-06-07T08:30:15.235Z,39.60
2019-06-07T08:32:29.523Z,35.80
2019-06-07T08:35:03.317Z,35.30
2019-06-07T08:38:13.519Z,38.50
2019-06-07T08:39:59.680Z,37.50
2019-06-07T08:42:36.809Z,38.60
2019-06-07T08:45:03.749Z,35.80
2019-06-07T08:47:29.163Z,34.30
2019-06-07T08:50:02.761Z,34.40
2019-06-07T08:52:27.912Z,33.80
2019-06-07T08:54:57.858Z,35.70
2019-06-07T08:57:26.723Z,33.30
2019-06-07T08:59:56.538Z,32.10
2019-06-07T09:02:25.990Z,32.80
2019-06-07T09:04:56.982Z,33.70
2019-06-07T09:07:24.821Z,34.80
2019-06-07T09:09:58.471Z,34.20
2019-06-07T09:12:23.657Z,35.00
2019-06-07T09:15:06.856Z,33.80
2019-06-07T09:17:22.417Z,36.20
2019-06-07T09:19:50.889Z,35.90
2019-06-07T09:22:19.394Z,34.60
2019-06-07T09:24:48.513Z,35.50
2019-06-07T09:27:22.767Z,34.80
2019-06-07T09:29:51.337Z,34.70
2019-06-07T09:32:19.999Z,33.60
2019-06-07T09:34:48.599Z,32.50
2019-06-07T09:38:03.516Z,34.00
2019-06-07T09:39:48.370Z,34.40
2019-06-07T09:42:16.917Z,35.10
2019-06-07T09:44:45.517Z,36.00
2019-06-07T09:47:31.325Z,35.10
2019-06-07T09:49:44.378Z,33.00
2019-06-07T09:52:12.960Z,31.70
2019-06-07T09:57:17.142Z,29.10
2019-06-07T09:59:42.032Z,30.00
2019-06-07T10:02:13.683Z,29.50
2019-06-07T10:04:40.817Z,28.70
2019-06-07T10:07:30.233Z,30.70
2019-06-07T10:10:09.886Z,32.00
2019-06-07T10:12:09.877Z,32.10
2019-06-07T10:14:38.408Z,31.20
2019-06-07T10:17:07.341Z,31.00
2019-06-07T10:19:36.088Z,30.30
2019-06-07T10:22:05.729Z,29.20
2019-06-07T10:24:34.488Z,28.50
2019-06-07T10:27:04.024Z,28.20
2019-06-07T10:29:32.722Z,28.80
2019-06-07T10:32:02.277Z,28.90
2019-06-07T10:34:30.959Z,30.20
2019-06-07T10:37:03.002Z,29.60
2019-06-07T10:39:29.817Z,28.90
2019-06-07T10:41:58.393Z,30.00
2019-06-07T10:44:26.942Z,31.30
2019-06-07T10:46:59.081Z,30.50
2019-06-07T10:49:25.938Z,30.90
2019-06-07T10:51:54.516Z,31.30
2019-06-07T10:54:29.548Z,30.50
2019-06-07T10:56:53.258Z,32.70
2019-06-07T10:59:21.841Z,32.30
2019-06-07T11:01:50.358Z,32.10
2019-06-07T11:04:18.917Z,30.50
2019-06-07T11:06:47.501Z,33.60
2019-06-07T11:09:16.101Z,35.00
2019-06-07T11:11:44.692Z,35.80
2019-06-07T11:14:14.597Z,37.80
2019-06-07T11:16:43.503Z,39.20
2019-06-07T11:19:15.340Z,39.30
2019-06-07T11:21:42.281Z,38.30
2019-06-07T11:24:12.278Z,40.40
2019-06-07T11:26:41.051Z,40.40
2019-06-07T11:29:10.925Z,40.20
2019-06-07T11:31:39.709Z,40.40
2019-06-07T11:34:08.359Z,40.90
2019-06-07T11:36:36.951Z,40.20
2019-06-07T11:39:08.491Z,40.20
2019-06-07T11:41:37.120Z,41.50
2019-06-07T11:44:06.693Z,40.90
2019-06-07T11:46:35.389Z,43.10
2019-06-07T11:49:04.132Z,42.60
2019-06-07T11:51:32.706Z,42.20
2019-06-07T11:54:01.298Z,44.00
2019-06-07T11:56:29.799Z,43.30
2019-06-07T11:58:58.385Z,44.00
2019-06-07T12:01:26.965Z,44.50
2019-06-07T12:03:58.645Z,45.00
2019-06-07T12:06:25.694Z,45.30
2019-06-07T12:08:54.260Z,47.20
2019-06-07T12:11:22.852Z,45.60
2019-06-07T12:13:51.397Z,45.60
2019-06-07T12:16:20.363Z,46.40
2019-06-07T12:18:48.963Z,47.70
2019-06-07T12:21:17.979Z,46.50
2019-06-07T12:23:46.785Z,47.90
2019-06-07T12:26:16.497Z,50.50
2019-06-07T12:28:45.258Z,49.80
2019-06-07T12:31:14.913Z,49.20
2019-06-07T12:33:43.622Z,51.40
2019-06-07T12:36:13.466Z,51.20
2019-06-07T12:38:42.194Z,51.60
2019-06-07T12:41:11.941Z,51.20
2019-06-07T12:43:40.770Z,51.40
2019-06-07T12:46:14.332Z,52.50
2019-06-07T12:48:39.633Z,51.90
2019-06-07T12:51:08.200Z,53.30
2019-06-07T12:53:36.805Z,52.60
2019-06-07T12:56:05.406Z,53.00
2019-06-07T12:58:37.365Z,53.90
2019-06-07T13:01:04.375Z,51.90
2019-06-07T13:03:33.003Z,53.00
2019-06-07T13:06:01.650Z,53.00
2019-06-07T13:08:30.416Z,52.50
2019-06-07T13:11:14.024Z,52.10
2019-06-07T13:13:29.296Z,51.90
2019-06-07T13:15:57.836Z,52.10
2019-06-07T13:18:26.432Z,52.20
2019-06-07T13:20:55.648Z,51.90
2019-06-07T13:23:24.462Z,53.90
2019-06-07T13:25:53.001Z,52.70
2019-06-07T13:28:22.685Z,54.30
2019-06-07T13:30:51.380Z,53.60
2019-06-07T13:33:21.513Z,54.10
2019-06-07T13:35:50.187Z,54.40
2019-06-07T13:38:25.593Z,55.30
2019-06-07T13:40:55.606Z,54.20
2019-06-07T13:43:24.131Z,55.00
2019-06-07T13:45:52.859Z,56.30
2019-06-07T13:48:21.476Z,56.30
2019-06-07T13:50:50.125Z,56.40
2019-06-07T13:53:19.009Z,55.80
2019-06-07T13:55:47.701Z,56.10
2019-06-07T13:58:16.276Z,55.90
2019-06-07T14:00:44.946Z,57.00
2019-06-07T14:03:13.532Z,56.60
2019-06-07T14:05:42.088Z,56.00
2019-06-07T14:08:14.705Z,56.10
2019-06-07T14:10:43.291Z,56.90
2019-06-07T14:13:11.955Z,56.30
2019-06-07T14:15:40.530Z,57.00
2019-06-07T14:18:09.138Z,57.10
2019-06-07T14:20:37.641Z,57.10
2019-06-07T14:23:06.272Z,57.50
2019-06-07T14:25:34.845Z,57.30
2019-06-07T14:28:10.479Z,57.70
2019-06-07T14:30:33.649Z,57.70
2019-06-07T14:33:02.264Z,57.20
2019-06-07T14:35:30.998Z,57.90
2019-06-07T14:37:59.832Z,57.10
2019-06-07T14:40:30.011Z,57.70
2019-06-07T14:42:58.734Z,58.30
2019-06-07T14:45:27.692Z,58.40
2019-06-07T14:47:56.402Z,58.00
2019-06-07T14:50:26.083Z,58.10
2019-06-07T14:52:54.889Z,57.80
2019-06-07T14:55:25.033Z,57.70
2019-06-07T14:57:53.769Z,58.20
2019-06-07T15:00:26.134Z,58.70
2019-06-07T15:02:54.799Z,57.70
2019-06-07T15:05:26.700Z,58.90
2019-06-07T15:07:55.446Z,58.20
2019-06-07T15:10:24.024Z,57.90
2019-06-07T15:12:52.620Z,57.50
2019-06-07T15:15:21.163Z,58.20
2019-06-07T15:17:49.795Z,58.00
2019-06-07T15:20:18.429Z,58.40
2019-06-07T15:22:47.015Z,57.80
2019-06-07T15:25:15.621Z,57.30
2019-06-07T15:27:44.251Z,57.50
2019-06-07T15:30:13.010Z,57.70
2019-06-07T15:32:41.551Z,58.20
2019-06-07T15:35:10.251Z,57.60
2019-06-07T15:37:40.463Z,57.80
2019-06-07T15:40:09.693Z,58.30
2019-06-07T15:42:51.467Z,58.10
2019-06-07T15:45:08.991Z,59.10
2019-06-07T15:47:38.376Z,58.40
2019-06-07T15:50:10.629Z,58.00
2019-06-07T15:52:42.582Z,58.00
2019-06-07T15:55:10.608Z,58.10
2019-06-07T15:57:39.790Z,58.20
2019-06-07T16:00:11.273Z,58.20
2019-06-07T16:02:39.910Z,58.60
2019-06-07T16:05:09.626Z,58.80
2019-06-07T16:07:42.543Z,58.00
2019-06-07T16:10:14.832Z,58.50
2019-06-07T16:12:59.097Z,59.30
2019-06-07T16:15:14.299Z,59.40
2019-06-07T16:17:43.893Z,58.60
2019-06-07T16:20:13.433Z,58.40
2019-06-07T16:22:42.160Z,58.20
2019-06-07T16:25:11.722Z,58.50
2019-06-07T16:27:40.730Z,58.90
2019-06-07T16:30:11.849Z,59.20
2019-06-07T16:32:41.805Z,58.20
2019-06-07T16:35:12.547Z,58.90
2019-06-07T16:37:42.767Z,58.40
2019-06-07T16:40:15.776Z,58.30
2019-06-07T16:42:45.100Z,59.00
2019-06-07T16:45:14.709Z,58.90
2019-06-07T16:47:46.015Z,58.50
2019-06-07T16:50:15.840Z,59.50
2019-06-07T16:52:46.366Z,59.40
2019-06-07T16:55:14.671Z,59.60
2019-06-07T16:57:43.247Z,59.50
2019-06-07T17:00:13.373Z,59.50
2019-06-07T17:02:42.289Z,60.30
2019-06-07T17:05:11.227Z,59.80
2019-06-07T17:07:40.300Z,60.20
2019-06-07T17:10:10.649Z,60.20
2019-06-07T17:12:40.636Z,60.00
2019-06-07T17:15:11.531Z,60.90
2019-06-07T17:17:41.003Z,60.80
2019-06-07T17:20:10.459Z,61.20
2019-06-07T17:22:39.164Z,60.90
2019-06-07T17:25:09.377Z,61.40
2019-06-07T17:27:37.953Z,61.60
2019-06-07T17:30:10.825Z,61.60
2019-06-07T17:32:51.789Z,62.10
2019-06-07T17:35:09.672Z,63.10
2019-06-07T17:37:38.286Z,62.80
2019-06-07T17:40:08.802Z,63.00
2019-06-07T17:42:37.383Z,63.20
2019-06-07T17:45:10.114Z,63.20
2019-06-07T17:47:38.677Z,63.30
2019-06-07T17:50:08.388Z,64.10
2019-06-07T17:52:37.007Z,63.50
2019-06-07T17:55:08.117Z,63.60
2019-06-07T17:57:36.698Z,63.90
2019-06-07T18:02:40.922Z,64.70
2019-06-07T18:05:11.345Z,65.70
2019-06-07T18:07:40.521Z,65.00
2019-06-07T18:10:11.047Z,65.20
2019-06-07T18:12:40.301Z,65.80
2019-06-07T18:15:11.534Z,66.20
2019-06-07T18:17:40.139Z,66.30
2019-06-07T18:20:09.969Z,66.40
2019-06-07T18:22:38.711Z,66.60
2019-06-07T18:25:08.623Z,67.40
2019-06-07T18:27:37.488Z,67.90
2019-06-07T18:30:11.782Z,67.50
2019-06-07T18:32:40.185Z,68.20
2019-06-07T18:35:08.951Z,67.90
2019-06-07T18:37:37.615Z,68.40
2019-06-07T18:40:07.671Z,68.30
2019-06-07T18:42:38.381Z,69.00
2019-06-07T18:45:07.629Z,69.00
2019-06-07T18:47:36.266Z,68.80
2019-06-07T18:50:07.461Z,69.90
2019-06-07T18:52:37.748Z,70.20
2019-06-07T18:55:10.371Z,70.20
2019-06-07T18:57:39.206Z,70.60
2019-06-07T19:00:14.953Z,70.50
2019-06-07T19:02:43.670Z,71.20
2019-06-07T19:05:13.076Z,71.70
2019-06-07T19:07:41.971Z,71.60
2019-06-07T19:10:13.389Z,72.10
2019-06-07T19:12:42.230Z,72.40
2019-06-07T19:15:12.901Z,72.90
2019-06-07T19:17:42.371Z,72.60
2019-06-07T19:20:12.911Z,72.80
2019-06-07T19:22:41.533Z,73.20
2019-06-07T19:25:12.015Z,73.00
2019-06-07T19:27:40.653Z,73.00
2019-06-07T19:30:14.402Z,73.50
2019-06-07T19:32:44.877Z,73.20
2019-06-07T19:35:13.930Z,74.30
2019-06-07T19:37:42.698Z,74.90
2019-06-07T19:40:14.551Z,74.80
2019-06-07T19:42:49.536Z,75.80
2019-06-07T19:45:30.544Z,76.40
2019-06-07T19:47:52.724Z,76.00
2019-06-07T19:50:22.316Z,76.30
2019-06-07T19:52:51.166Z,76.60
2019-06-07T19:55:19.853Z,77.00
2019-06-07T19:57:53.384Z,77.40
2019-06-07T20:00:23.311Z,77.50
2019-06-07T20:02:51.973Z,77.50
2019-06-07T20:05:20.918Z,77.70
2019-06-07T20:07:49.587Z,77.90
2019-06-07T20:10:18.452Z,78.40
2019-06-07T20:12:47.200Z,78.60
2019-06-07T20:15:28.328Z,79.00
2019-06-07T20:17:49.714Z,79.20
2019-06-07T20:20:18.336Z,79.20
2019-06-07T20:22:47.140Z,79.80
2019-06-07T20:25:16.094Z,79.90
2019-06-07T20:27:44.781Z,80.20
2019-06-07T20:30:15.504Z,80.90
2019-06-07T20:32:45.520Z,81.10
2019-06-07T20:35:15.680Z,81.80
2019-06-07T20:37:44.315Z,82.00
2019-06-07T20:40:23.564Z,81.50
2019-06-07T20:42:43.621Z,81.40
2019-06-07T20:45:12.412Z,81.70
2019-06-07T20:47:41.040Z,82.40
2019-06-07T20:50:09.892Z,82.10
2019-06-07T20:52:39.119Z,82.60
2019-06-07T20:55:09.613Z,83.10
2019-06-07T20:57:40.129Z,83.10
2019-06-07T21:00:20.685Z,83.00
2019-06-07T21:02:42.183Z,83.30
2019-06-07T21:05:14.812Z,83.20
2019-06-07T21:07:43.485Z,83.70
2019-06-07T21:10:12.295Z,83.80
2019-06-07T21:12:41.038Z,84.30
2019-06-07T21:15:12.748Z,84.30
2019-06-07T21:17:40.482Z,85.00
2019-06-07T21:20:13.658Z,85.10
2019-06-07T21:22:39.885Z,85.80
2019-06-07T21:25:09.577Z,85.00
2019-06-07T21:27:38.433Z,85.30
2019-06-07T21:30:11.776Z,86.00
2019-06-07T21:32:40.461Z,86.10
2019-06-07T21:35:12.423Z,85.60
2019-06-07T21:37:41.316Z,85.90
2019-06-07T21:40:12.786Z,86.40
2019-06-07T21:42:41.409Z,86.90
2019-06-07T21:45:11.981Z,87.10
2019-06-07T21:47:41.051Z,86.30
2019-06-07T21:50:10.840Z,87.40
2019-06-07T21:52:39.647Z,87.30
2019-06-07T21:55:09.251Z,87.70
2019-06-07T21:57:38.545Z,87.90
2019-06-07T22:00:31.560Z,87.80
2019-06-07T22:03:00.188Z,88.80
2019-06-07T22:05:30.296Z,88.80
2019-06-07T22:07:58.908Z,88.80
2019-06-07T22:10:27.526Z,88.80
2019-06-07T22:12:56.099Z,88.00
2019-06-07T22:15:33.979Z,87.80
2019-06-07T22:17:54.992Z,88.30
2019-06-07T22:20:23.622Z,87.80
2019-06-07T22:22:52.205Z,87.80
2019-06-07T22:25:20.779Z,88.50
2019-06-07T22:27:49.383Z,87.40
2019-06-07T22:30:18.768Z,87.80
2019-06-07T22:32:47.503Z,88.50
2019-06-07T22:35:16.068Z,88.80
2019-06-07T22:37:44.608Z,88.70
2019-06-07T22:40:14.624Z,90.20
2019-06-07T22:42:43.342Z,90.20
2019-06-07T22:45:14.943Z,90.30
2019-06-07T22:47:45.164Z,90.30
2019-06-07T22:50:14.421Z,90.20
2019-06-07T22:52:43.294Z,90.50
2019-06-07T22:55:12.245Z,90.50
2019-06-07T22:57:57.918Z,90.30
2019-06-07T23:00:29.690Z,90.50
2019-06-07T23:02:58.329Z,90.80
2019-06-07T23:05:26.995Z,90.80
2019-06-07T23:07:55.663Z,90.60
2019-06-07T23:10:24.297Z,90.60
2019-06-07T23:12:52.863Z,90.70
2019-06-07T23:15:21.493Z,90.80
2019-06-07T23:17:50.048Z,91.50
2019-06-07T23:20:20.123Z,91.40
2019-06-07T23:22:48.794Z,91.60
2019-06-07T23:25:21.874Z,91.90
2019-06-07T23:27:48.025Z,92.00
2019-06-07T23:30:18.672Z,92.00
2019-06-07T23:32:47.449Z,91.60
2019-06-07T23:35:17.277Z,91.70
2019-06-07T23:37:45.984Z,92.40
2019-06-07T23:40:15.361Z,92.70
2019-06-07T23:42:43.909Z,92.90
2019-06-07T23:45:13.788Z,92.80
2019-06-07T23:47:42.570Z,92.90
2019-06-07T23:50:11.528Z,92.70
2019-06-07T23:52:40.196Z,92.10
2019-06-07T23:55:08.912Z,93.10
2019-06-07T23:57:37.472Z,92.90
